Time;durP1;ratioP1;P1;durP2;ratioP2;P2;SDS_P1;SDS_P2;PMS_P1;PMS_P2;Temp;Humidity;BMP_temperature;BMP_pressure;BME280_temperature;BME280_humidity;BME280_pressure;Samples;Min_cycle;Max_cycle;Signal;HPM_P1;HPM_P2
2023/11/05 00:00:34;;;;;;;6.07;4.63;;;22.40;64.80;;;;;;5062059;28;20071;-76
2023/11/05 00:02:59;;;;;;;5.57;4.40;;;22.30;64.70;;;;;;4355734;28;9999872;-79
2023/11/05 00:05:25;;;;;;;8.40;4.30;;;22.40;64.60;;;;;;5057101;28;20048;-79
2023/11/05 00:07:50;;;;;;;5.40;3.95;;;22.30;64.90;;;;;;4736174;28;10000640;-77
2023/11/05 00:10:16;;;;;;;4.32;3.83;;;22.30;65.00;;;;;;5053145;28;20040;-77
2023/11/05 00:12:41;;;;;;;5.68;3.90;;;22.30;65.10;;;;;;5070371;28;20048;-76
2023/11/05 00:15:08;;;;;;;4.88;4.13;;;22.20;65.00;;;;;;5052985;28;20041;-76
2023/11/05 00:17:33;;;;;;;5.10;3.70;;;22.20;65.00;;;;;;5054834;28;20141;-75
2023/11/05 00:20:00;;;;;;;6.40;3.88;;;22.30;65.00;;;;;;5055085;28;20079;-76
2023/11/05 00:22:25;;;;;;;4.43;3.10;;;22.30;65.00;;;;;;5056703;28;20049;-75
2023/11/05 00:24:51;;;;;;;6.85;4.50;;;22.30;65.00;;;;;;5057707;28;20055;-75
2023/11/05 00:27:16;;;;;;;5.78;3.85;;;22.30;65.20;;;;;;5056319;28;20048;-75
2023/11/05 00:29:42;;;;;;;5.47;4.07;;;22.20;65.30;;;;;;5039242;28;20075;-75
2023/11/05 00:32:08;;;;;;;4.15;3.75;;;22.20;65.40;;;;;;5054480;28;20098;-74
2023/11/05 00:34:34;;;;;;;3.70;3.45;;;22.20;65.50;;;;;;5087197;28;20020;-76
2023/11/05 00:36:59;;;;;;;9.60;3.90;;;22.10;65.50;;;;;;5060745;28;20066;-80
2023/11/05 00:39:25;;;;;;;5.30;3.55;;;22.10;65.50;;;;;;5047566;28;20123;-77
2023/11/05 00:41:50;;;;;;;4.90;3.38;;;22.10;65.70;;;;;;5062983;28;20057;-77
2023/11/05 00:44:16;;;;;;;7.25;3.75;;;22.10;65.90;;;;;;5076203;28;20036;-78
2023/11/05 00:46:42;;;;;;;8.15;3.70;;;22.00;66.00;;;;;;5061856;28;20044;-78
2023/11/05 00:49:09;;;;;;;6.88;3.20;;;22.00;66.00;;;;;;5063565;28;20063;-78
2023/11/05 00:51:34;;;;;;;9.55;3.65;;;21.90;66.30;;;;;;5064344;28;20029;-77
2023/11/05 00:54:00;;;;;;;7.82;3.38;;;21.90;66.60;;;;;;5062628;28;20037;-76
2023/11/05 00:56:26;;;;;;;12.98;4.15;;;21.80;66.40;;;;;;5059206;28;20114;-77
2023/11/05 00:58:51;;;;;;;8.23;2.75;;;21.80;67.50;;;;;;5060155;28;20090;-75
2023/11/05 01:01:17;;;;;;;8.77;3.85;;;21.70;66.90;;;;;;5099287;28;20462;-77
2023/11/05 01:03:43;;;;;;;11.43;3.67;;;21.60;67.20;;;;;;5066312;28;20571;-77
2023/11/05 01:06:08;;;;;;;9.43;3.72;;;21.60;67.30;;;;;;5061447;28;20086;-77
2023/11/05 01:08:34;;;;;;;4.63;3.00;;;21.50;67.60;;;;;;5044602;28;20036;-77
2023/11/05 01:10:59;;;;;;;5.95;3.08;;;21.50;67.50;;;;;;5063655;28;20048;-77
2023/11/05 01:13:26;;;;;;;6.38;3.20;;;21.50;67.90;;;;;;5066755;28;20035;-77
2023/11/05 01:15:52;;;;;;;10.13;3.33;;;21.40;67.90;;;;;;5058259;28;20120;-77
2023/11/05 01:18:18;;;;;;;13.27;3.35;;;21.30;68.20;;;;;;5061687;28;20119;-77
2023/11/05 01:20:43;;;;;;;8.45;3.38;;;21.30;68.20;;;;;;5066394;28;20163;-77
2023/11/05 01:23:09;;;;;;;6.70;3.40;;;21.20;68.30;;;;;;5062449;28;20131;-77
2023/11/05 01:25:35;;;;;;;9.60;3.10;;;21.20;68.60;;;;;;5061510;28;20063;-77
2023/11/05 01:28:00;;;;;;;6.05;3.33;;;21.10;68.80;;;;;;5066267;28;20033;-76
2023/11/05 01:30:26;;;;;;;5.63;3.15;;;21.00;69.00;;;;;;5062362;28;20459;-76
2023/11/05 01:32:51;;;;;;;7.22;3.25;;;21.00;69.10;;;;;;5060284;28;20049;-76
2023/11/05 01:35:17;;;;;;;6.80;3.33;;;21.00;69.00;;;;;;5061537;28;20035;-77
2023/11/05 01:37:43;;;;;;;3.60;2.70;;;20.90;69.30;;;;;;5059300;28;20154;-77
2023/11/05 01:40:09;;;;;;;5.07;3.10;;;20.90;69.30;;;;;;5061048;28;20604;-76
2023/11/05 01:42:34;;;;;;;5.13;2.97;;;20.90;69.80;;;;;;5092475;28;20036;-77
2023/11/05 01:45:00;;;;;;;5.97;2.88;;;20.80;69.60;;;;;;5062038;28;20150;-77
2023/11/05 01:47:26;;;;;;;3.85;3.13;;;20.80;69.80;;;;;;5061514;28;20041;-77
2023/11/05 01:49:51;;;;;;;5.53;3.20;;;20.70;69.80;;;;;;5062926;28;20047;-77
2023/11/05 01:52:18;;;;;;;5.47;3.10;;;20.70;70.00;;;;;;5076488;28;20025;-77
2023/11/05 01:54:43;;;;;;;2.83;2.33;;;20.60;70.20;;;;;;5046415;28;21071;-77
2023/11/05 01:57:09;;;;;;;3.15;2.42;;;20.60;70.30;;;;;;5063556;28;20044;-77
2023/11/05 01:59:35;;;;;;;4.22;2.38;;;20.60;70.30;;;;;;5061115;28;20070;-77
2023/11/05 02:02:01;;;;;;;4.90;2.30;;;20.50;70.50;;;;;;5060979;28;20051;-76
2023/11/05 02:04:27;;;;;;;6.18;3.03;;;20.50;70.50;;;;;;5075594;28;20021;-76
2023/11/05 02:06:53;;;;;;;3.65;2.92;;;20.50;70.60;;;;;;5061303;28;20525;-76
2023/11/05 02:09:18;;;;;;;4.95;2.45;;;20.50;70.70;;;;;;5063764;28;20057;-76
2023/11/05 02:11:44;;;;;;;4.30;2.58;;;20.50;70.80;;;;;;5061081;28;20455;-76
2023/11/05 02:14:13;;;;;;;5.07;3.03;;;20.40;70.90;;;;;;5056035;28;20035;-76
2023/11/05 02:16:39;;;;;;;2.38;2.15;;;20.40;70.90;;;;;;5056178;28;20055;-77
2023/11/05 02:19:04;;;;;;;4.28;2.65;;;20.30;70.90;;;;;;5063690;28;20111;-77
2023/11/05 02:21:52;;;;;;;2.53;2.30;;;20.30;71.10;;;;;;5065733;28;20044;-76
2023/11/05 02:24:17;;;;;;;5.65;2.60;;;20.30;71.20;;;;;;5061512;28;20044;-76
2023/11/05 02:26:55;;;;;;;4.65;2.58;;;20.30;71.30;;;;;;5058284;28;20036;-77
2023/11/05 02:29:20;;;;;;;4.93;2.33;;;20.20;71.40;;;;;;5059307;28;20105;-76
2023/11/05 02:31:46;;;;;;;5.20;2.10;;;20.20;71.50;;;;;;5058383;28;20036;-76
2023/11/05 02:34:12;;;;;;;3.38;2.25;;;20.20;71.60;;;;;;5057316;28;20155;-76
2023/11/05 02:36:37;;;;;;;3.38;2.40;;;20.20;71.60;;;;;;5096035;28;20036;-76
2023/11/05 02:39:04;;;;;;;3.42;2.13;;;20.20;71.50;;;;;;5095689;28;20045;-76
2023/11/05 02:41:29;;;;;;;3.88;2.40;;;20.20;71.70;;;;;;5055031;28;20099;-75
2023/11/05 02:43:55;;;;;;;3.60;2.30;;;20.10;71.90;;;;;;5056815;28;22013;-76
2023/11/05 02:46:20;;;;;;;1.95;1.83;;;20.10;71.90;;;;;;5060570;28;20391;-76
2023/11/05 02:48:46;;;;;;;1.85;1.75;;;20.10;71.70;;;;;;5095996;27;20045;-76
2023/11/05 02:51:11;;;;;;;3.50;2.13;;;20.10;71.90;;;;;;5062325;28;20175;-76
2023/11/05 02:53:37;;;;;;;3.08;2.28;;;20.00;71.80;;;;;;5062463;28;20067;-76
2023/11/05 02:56:04;;;;;;;4.70;2.42;;;20.00;72.00;;;;;;5043490;28;20098;-76
2023/11/05 02:58:29;;;;;;;3.30;2.10;;;20.00;72.10;;;;;;5056291;28;20040;-76
2023/11/05 03:00:55;;;;;;;4.03;1.80;;;19.90;72.10;;;;;;5060887;28;20062;-76
2023/11/05 03:03:20;;;;;;;2.70;1.63;;;19.90;72.40;;;;;;5064117;28;20028;-76
2023/11/05 03:05:46;;;;;;;4.10;1.83;;;19.90;72.60;;;;;;5062664;28;20589;-76
2023/11/05 03:08:11;;;;;;;2.13;1.85;;;19.90;72.80;;;;;;5076598;28;20122;-76
2023/11/05 03:10:37;;;;;;;2.45;2.20;;;19.90;72.90;;;;;;5062707;28;20045;-76
2023/11/05 03:13:03;;;;;;;2.58;1.95;;;19.90;73.00;;;;;;5060325;28;20573;-76
2023/11/05 03:15:29;;;;;;;4.43;2.00;;;19.90;73.10;;;;;;5062658;28;20112;-76
2023/11/05 03:17:54;;;;;;;2.90;1.80;;;19.90;73.20;;;;;;5059648;28;20032;-76
2023/11/05 03:20:20;;;;;;;2.88;1.95;;;19.90;73.30;;;;;;5058985;28;20044;-76
2023/11/05 03:22:46;;;;;;;2.20;2.00;;;19.90;73.40;;;;;;5042682;28;20029;-76
2023/11/05 03:25:11;;;;;;;2.05;1.92;;;19.90;73.30;;;;;;5052649;28;20044;-76
2023/11/05 03:27:38;;;;;;;2.95;1.65;;;19.80;73.50;;;;;;5060816;28;20088;-76
2023/11/05 03:30:04;;;;;;;3.13;1.80;;;19.80;73.60;;;;;;5054386;28;20048;-75
2023/11/05 03:32:30;;;;;;;1.90;1.70;;;19.80;73.60;;;;;;5046520;28;20060;-74
2023/11/05 03:34:56;;;;;;;1.80;1.52;;;19.80;73.60;;;;;;5056312;28;20143;-75
2023/11/05 03:37:21;;;;;;;2.75;1.90;;;19.80;73.70;;;;;;5061377;28;20064;-74
2023/11/05 03:39:50;;;;;;;1.98;1.77;;;19.80;73.60;;;;;;5062468;28;20048;-75
2023/11/05 03:42:16;;;;;;;1.70;1.52;;;19.80;73.60;;;;;;5063202;28;20043;-75
2023/11/05 03:44:41;;;;;;;1.70;1.50;;;19.70;73.60;;;;;;5056603;28;20036;-75
2023/11/05 03:47:07;;;;;;;2.95;1.70;;;19.70;73.60;;;;;;5059371;28;20094;-75
2023/11/05 03:49:32;;;;;;;2.00;1.60;;;19.70;73.80;;;;;;5059412;28;20040;-75
2023/11/05 03:51:59;;;;;;;1.65;1.48;;;19.70;73.90;;;;;;5060709;28;20048;-74
2023/11/05 03:54:25;;;;;;;1.65;1.50;;;19.60;73.70;;;;;;5088866;28;20040;-74
2023/11/05 03:56:50;;;;;;;2.58;1.40;;;19.70;73.70;;;;;;5044946;28;20045;-75
2023/11/05 03:59:16;;;;;;;1.80;1.70;;;19.70;73.80;;;;;;5057909;28;20041;-75
2023/11/05 04:01:42;;;;;;;2.70;1.70;;;19.60;73.50;;;;;;5044876;28;20448;-75
2023/11/05 04:04:10;;;;;;;2.83;1.48;;;19.60;73.50;;;;;;5060387;28;20048;-74
2023/11/05 04:06:36;;;;;;;2.75;1.40;;;19.60;73.50;;;;;;5045944;28;20037;-74
2023/11/05 04:09:02;;;;;;;1.63;1.42;;;19.60;73.80;;;;;;5058643;28;20053;-75
2023/11/05 04:11:28;;;;;;;1.92;1.58;;;19.60;73.80;;;;;;5049010;28;20040;-74
2023/11/05 04:13:53;;;;;;;1.83;1.48;;;19.60;73.80;;;;;;5065016;28;20426;-74
2023/11/05 04:16:19;;;;;;;2.17;1.58;;;19.50;73.90;;;;;;5064864;28;20078;-74
2023/11/05 04:18:45;;;;;;;1.88;1.33;;;19.50;73.70;;;;;;5082630;28;20191;-75
2023/11/05 04:21:10;;;;;;;1.50;1.20;;;19.50;73.70;;;;;;5064447;28;20101;-75
2023/11/05 04:23:36;;;;;;;1.45;1.20;;;19.50;73.50;;;;;;5049525;28;20055;-75
2023/11/05 04:26:03;;;;;;;1.75;1.65;;;19.50;73.50;;;;;;5062931;28;20403;-74
2023/11/05 04:28:29;;;;;;;1.30;1.20;;;19.50;73.50;;;;;;5063647;28;20037;-75
2023/11/05 04:30:54;;;;;;;1.92;1.17;;;19.50;73.50;;;;;;5064050;28;20041;-74
2023/11/05 04:33:20;;;;;;;1.90;1.20;;;19.50;73.70;;;;;;5065638;28;20037;-74
2023/11/05 04:35:45;;;;;;;1.30;1.20;;;19.40;73.50;;;;;;5049405;28;20544;-75
2023/11/05 04:38:11;;;;;;;2.28;1.30;;;19.40;73.60;;;;;;5062065;28;20537;-74
2023/11/05 04:40:37;;;;;;;1.58;1.30;;;19.40;73.50;;;;;;5094763;27;20040;-75
2023/11/05 04:43:02;;;;;;;4.57;1.42;;;19.40;73.60;;;;;;5093986;28;20601;-75
2023/11/05 04:45:30;;;;;;;1.50;1.30;;;19.40;73.60;;;;;;5062704;28;20441;-75
2023/11/05 04:47:56;;;;;;;1.90;1.38;;;19.40;73.50;;;;;;5061352;28;20087;-75
2023/11/05 04:50:22;;;;;;;1.00;0.90;;;19.30;73.60;;;;;;5057085;28;20571;-75
2023/11/05 04:52:52;;;;;;;1.35;1.10;;;19.30;73.50;;;;;;5060787;28;20044;-75
2023/11/05 04:55:18;;;;;;;2.20;1.08;;;19.40;73.40;;;;;;5063552;28;20045;-75
2023/11/05 04:57:43;;;;;;;2.25;1.58;;;19.30;73.40;;;;;;5098111;28;20044;-74
2023/11/05 05:00:09;;;;;;;1.52;1.13;;;19.30;73.40;;;;;;5063072;28;20123;-74
2023/11/05 05:02:35;;;;;;;2.88;1.55;;;19.30;73.50;;;;;;5063177;28;20044;-75
2023/11/05 05:05:00;;;;;;;2.92;1.30;;;19.30;73.70;;;;;;5059576;28;20036;-75
2023/11/05 05:07:26;;;;;;;1.00;0.93;;;19.30;73.80;;;;;;5065030;28;20045;-75
2023/11/05 05:09:51;;;;;;;1.02;0.90;;;19.30;73.70;;;;;;5066137;28;20048;-75
2023/11/05 05:12:17;;;;;;;2.20;0.90;;;19.20;73.70;;;;;;5065473;28;20453;-75
2023/11/05 05:14:42;;;;;;;1.00;1.00;;;19.20;74.50;;;;;;5047193;28;20083;-75
2023/11/05 05:17:08;;;;;;;1.10;0.98;;;19.20;73.70;;;;;;5061446;28;20094;-75
2023/11/05 05:19:33;;;;;;;1.83;1.10;;;19.20;73.70;;;;;;5063609;28;20092;-75
2023/11/05 05:22:02;;;;;;;1.60;1.08;;;19.20;73.70;;;;;;5061591;28;20048;-75
2023/11/05 05:24:28;;;;;;;2.10;1.30;;;19.20;73.70;;;;;;5063118;28;20068;-75
2023/11/05 05:26:54;;;;;;;1.52;1.02;;;19.20;73.70;;;;;;5042575;28;20029;-75
2023/11/05 05:29:19;;;;;;;1.65;1.25;;;19.10;73.60;;;;;;5062720;28;20516;-75
2023/11/05 05:31:45;;;;;;;1.58;1.23;;;19.10;73.60;;;;;;5059208;28;20126;-75
2023/11/05 05:34:10;;;;;;;2.80;1.05;;;19.10;73.50;;;;;;5093352;28;20048;-75
2023/11/05 05:36:39;;;;;;;1.95;0.88;;;19.10;73.70;;;;;;5064668;28;20498;-75
2023/11/05 05:39:04;;;;;;;1.10;0.98;;;19.10;73.70;;;;;;5063734;28;20041;-75
2023/11/05 05:41:30;;;;;;;1.45;1.20;;;19.10;73.70;;;;;;5043898;28;20094;-75
2023/11/05 05:43:55;;;;;;;1.38;1.05;;;19.10;73.60;;;;;;5076875;28;20528;-75
2023/11/05 05:46:21;;;;;;;1.45;1.17;;;19.10;73.60;;;;;;5080585;28;20024;-75
2023/11/05 05:48:47;;;;;;;1.85;1.17;;;19.10;74.20;;;;;;5098459;28;20316;-74
2023/11/05 05:51:14;;;;;;;1.02;0.82;;;19.10;73.50;;;;;;5062964;28;20042;-75
2023/11/05 05:53:40;;;;;;;1.05;0.80;;;19.10;73.60;;;;;;5062890;28;20139;-74
2023/11/05 05:56:05;;;;;;;1.38;1.02;;;19.00;73.60;;;;;;5060656;28;20562;-75
2023/11/05 05:58:31;;;;;;;1.00;0.90;;;19.00;73.80;;;;;;5061157;28;20455;-75
2023/11/05 06:00:57;;;;;;;1.15;1.00;;;19.00;73.90;;;;;;5047761;28;20052;-75
2023/11/05 06:03:22;;;;;;;0.80;0.80;;;19.00;73.50;;;;;;5063743;28;20070;-75
2023/11/05 06:05:48;;;;;;;1.05;0.80;;;19.00;73.70;;;;;;5061082;28;20064;-76
2023/11/05 06:08:14;;;;;;;1.38;0.95;;;19.00;73.60;;;;;;5063212;28;20044;-80
2023/11/05 06:10:39;;;;;;;0.95;0.93;;;19.00;73.70;;;;;;5061657;28;20041;-80
2023/11/05 06:13:05;;;;;;;1.00;0.80;;;19.00;73.60;;;;;;5066025;28;20048;-80
2023/11/05 06:15:31;;;;;;;1.15;0.70;;;19.00;73.60;;;;;;5064324;28;20158;-81
2023/11/05 06:17:56;;;;;;;1.13;1.02;;;19.00;73.60;;;;;;5058430;28;20047;-80
2023/11/05 06:20:22;;;;;;;0.88;0.88;;;18.90;73.50;;;;;;5066162;28;20403;-79
2023/11/05 06:22:48;;;;;;;0.75;0.75;;;18.90;73.60;;;;;;5062072;28;20037;-80
2023/11/05 06:25:13;;;;;;;1.20;1.10;;;18.90;73.60;;;;;;5057838;28;20275;-81
2023/11/05 06:27:39;;;;;;;0.77;0.70;;;18.90;73.60;;;;;;5063435;28;20477;-81
2023/11/05 06:30:06;;;;;;;0.85;0.70;;;18.90;73.70;;;;;;5061713;28;20060;-81
2023/11/05 06:32:34;;;;;;;1.58;0.90;;;18.90;73.60;;;;;;5062086;28;20092;-80
2023/11/05 06:35:00;;;;;;;2.10;1.20;;;18.80;73.60;;;;;;5058123;28;20648;-81
2023/11/05 06:37:26;;;;;;;0.80;0.80;;;18.80;73.70;;;;;;5058905;28;20037;-80
2023/11/05 06:39:52;;;;;;;1.05;0.98;;;18.80;73.70;;;;;;5062537;28;20040;-79
2023/11/05 06:42:17;;;;;;;0.60;0.60;;;18.80;73.50;;;;;;5062096;28;20044;-80
2023/11/05 06:44:43;;;;;;;1.35;0.93;;;18.80;73.50;;;;;;5057856;28;20046;-81
2023/11/05 06:47:08;;;;;;;1.10;0.93;;;18.90;73.40;;;;;;5058785;28;20040;-82
2023/11/05 06:49:34;;;;;;;1.23;0.77;;;18.80;73.60;;;;;;5064065;28;20048;-79
2023/11/05 06:52:00;;;;;;;1.67;1.00;;;18.90;74.20;;;;;;5063082;28;20041;-78
2023/11/05 06:54:25;;;;;;;1.15;1.05;;;18.90;73.70;;;;;;5063895;28;20071;-82
2023/11/05 06:56:51;;;;;;;2.53;0.73;;;18.90;73.50;;;;;;5060123;28;20064;-75
2023/11/05 06:59:17;;;;;;;2.25;0.63;;;18.80;73.00;;;;;;5060914;28;20040;-79
2023/11/05 07:01:43;;;;;;;4.57;1.20;;;18.90;73.80;;;;;;5062954;28;20048;-81
2023/11/05 07:04:09;;;;;;;2.47;1.30;;;18.90;73.10;;;;;;5062258;28;20987;-80
2023/11/05 07:06:35;;;;;;;4.82;1.30;;;18.80;67.40;;;;;;5065594;28;20045;-79
2023/11/05 07:09:00;;;;;;;4.53;1.25;;;18.50;66.10;;;;;;5092120;28;20119;-81
2023/11/05 07:11:26;;;;;;;6.22;1.83;;;18.30;64.50;;;;;;5063947;28;20045;-82
2023/11/05 07:13:52;;;;;;;5.78;1.92;;;18.20;64.20;;;;;;5062445;28;20037;-78
2023/11/05 07:16:18;;;;;;;4.10;1.50;;;18.10;64.00;;;;;;5060936;28;20045;-79
2023/11/05 07:18:43;;;;;;;9.05;2.20;;;18.00;64.30;;;;;;5060712;28;20039;-84
2023/11/05 07:21:14;;;;;;;5.68;1.88;;;17.90;64.10;;;;;;5061370;28;20178;-82
2023/11/05 07:23:41;;;;;;;4.32;1.60;;;18.00;63.50;;;;;;5062081;28;20115;-81
2023/11/05 07:26:06;;;;;;;5.10;1.40;;;18.00;65.50;;;;;;5058721;28;20106;-78
2023/11/05 07:28:32;;;;;;;3.72;1.50;;;18.10;65.50;;;;;;5061401;28;20045;-79
2023/11/05 07:30:58;;;;;;;5.50;2.67;;;18.30;65.50;;;;;;5060652;28;20132;-78
2023/11/05 07:33:24;;;;;;;4.38;1.60;;;18.40;66.40;;;;;;5065942;28;20154;-79
2023/11/05 07:35:49;;;;;;;4.03;1.60;;;18.40;66.10;;;;;;5062181;28;20045;-79
2023/11/05 07:38:15;;;;;;;3.35;1.58;;;18.40;66.20;;;;;;5062608;28;20124;-79
2023/11/05 07:40:41;;;;;;;3.80;1.40;;;18.40;66.90;;;;;;5061748;28;20075;-78
2023/11/05 07:43:06;;;;;;;3.00;1.67;;;18.40;67.30;;;;;;5060737;28;20044;-78
2023/11/05 07:45:32;;;;;;;1.75;1.35;;;18.40;67.50;;;;;;5050423;28;20052;-78
2023/11/05 07:47:58;;;;;;;4.00;1.70;;;18.40;67.40;;;;;;5097288;28;20036;-78
2023/11/05 07:50:25;;;;;;;2.42;1.63;;;18.50;68.00;;;;;;5067289;28;20110;-78
2023/11/05 07:52:51;;;;;;;2.35;1.30;;;18.50;68.60;;;;;;5084959;28;20127;-79
2023/11/05 07:55:16;;;;;;;3.42;1.45;;;18.60;68.60;;;;;;5066763;28;20131;-79
2023/11/05 07:57:43;;;;;;;5.43;1.83;;;18.60;68.80;;;;;;5069689;28;20044;-79
2023/11/05 08:00:15;;;;;;;3.67;1.15;;;18.60;69.40;;;;;;5060346;28;20047;-81
2023/11/05 08:02:41;;;;;;;2.85;1.65;;;18.50;69.50;;;;;;5052318;28;20391;-78
2023/11/05 08:05:08;;;;;;;3.33;1.40;;;18.60;69.50;;;;;;5065327;28;20032;-77
2023/11/05 08:07:33;;;;;;;3.60;1.48;;;18.60;69.60;;;;;;5099898;27;20036;-82
2023/11/05 08:09:59;;;;;;;5.40;1.58;;;18.60;70.00;;;;;;5082127;28;20498;-83
2023/11/05 08:12:25;;;;;;;5.85;1.52;;;18.70;70.00;;;;;;5067190;28;20502;-85
2023/11/05 08:14:50;;;;;;;3.90;1.45;;;18.70;70.10;;;;;;5064528;28;20063;-75
2023/11/05 08:17:16;;;;;;;10.95;1.95;;;18.80;70.70;;;;;;5064685;28;20056;-76
2023/11/05 08:19:42;;;;;;;6.88;1.58;;;18.90;70.80;;;;;;5065681;28;20041;-78
2023/11/05 08:22:08;;;;;;;6.47;1.45;;;18.90;71.10;;;;;;5065959;28;20090;-78
2023/11/05 08:24:34;;;;;;;2.88;1.42;;;18.90;71.80;;;;;;5067481;28;20028;-81
2023/11/05 08:27:00;;;;;;;3.58;1.35;;;18.90;71.80;;;;;;5062848;28;20033;-84
2023/11/05 08:29:27;;;;;;;6.15;1.70;;;18.90;71.20;;;;;;5066134;28;20406;-81
2023/11/05 08:31:53;;;;;;;6.68;1.50;;;18.90;71.90;;;;;;5066439;28;20518;-83
2023/11/05 08:34:19;;;;;;;3.42;1.60;;;19.00;72.90;;;;;;5065481;28;20029;-82
2023/11/05 08:36:45;;;;;;;2.63;1.20;;;19.00;71.70;;;;;;5102168;28;20040;-85
2023/11/05 08:39:11;;;;;;;3.83;1.25;;;19.00;72.80;;;;;;5067895;28;20041;-84
2023/11/05 08:41:36;;;;;;;3.42;1.33;;;19.00;73.20;;;;;;5068296;28;20040;-82
2023/11/05 08:44:02;;;;;;;7.43;1.85;;;19.00;73.20;;;;;;5065698;28;20532;-84
2023/11/05 08:46:29;;;;;;;5.13;1.67;;;19.00;73.20;;;;;;5066471;28;20040;-82
2023/11/05 08:48:54;;;;;;;3.53;1.67;;;19.00;73.90;;;;;;5065653;28;20067;-81
2023/11/05 08:51:27;;;;;;;3.75;1.40;;;19.00;73.60;;;;;;5064224;28;20059;-89
2023/11/05 08:53:55;;;;;;;3.30;1.70;;;19.00;73.20;;;;;;5050475;28;20073;-85
2023/11/05 08:56:21;;;;;;;3.67;1.40;;;19.00;74.40;;;;;;5061621;28;20093;-90
2023/11/05 08:58:48;;;;;;;2.25;1.23;;;19.00;73.70;;;;;;5060935;28;20036;-88
2023/11/05 09:01:16;;;;;;;2.95;1.45;;;19.00;73.70;;;;;;5062662;28;20105;-88
2023/11/05 09:03:43;;;;;;;2.70;1.60;;;19.10;72.70;;;;;;5068172;28;20040;-85
2023/11/05 09:06:09;;;;;;;6.18;1.60;;;19.10;73.50;;;;;;5062803;28;20063;-87
2023/11/05 09:08:38;;;;;;;1.65;1.08;;;19.10;73.20;;;;;;5055606;28;20167;-85
2023/11/05 09:11:07;;;;;;;4.55;1.50;;;19.10;73.50;;;;;;5051871;28;20053;-84
2023/11/05 09:13:33;;;;;;;1.77;1.30;;;19.20;73.70;;;;;;5060089;28;20036;-84
2023/11/05 09:15:59;;;;;;;5.25;1.52;;;19.20;73.40;;;;;;5043569;28;20075;-85
2023/11/05 09:18:25;;;;;;;3.22;1.60;;;19.20;73.30;;;;;;5031463;28;20036;-85
2023/11/05 09:20:51;;;;;;;3.22;1.55;;;19.20;73.90;;;;;;5064610;28;20048;-85
2023/11/05 09:23:17;;;;;;;3.15;1.63;;;19.20;73.20;;;;;;5043711;28;20059;-83
2023/11/05 09:25:42;;;;;;;3.58;1.38;;;19.20;73.30;;;;;;5060482;28;20048;-84
2023/11/05 09:28:08;;;;;;;5.90;1.48;;;19.30;73.10;;;;;;5062982;28;20525;-82
2023/11/05 09:30:34;;;;;;;4.68;1.40;;;19.30;73.30;;;;;;5033774;28;20045;-84
2023/11/05 09:33:00;;;;;;;2.85;1.50;;;19.30;73.20;;;;;;5065777;28;20045;-81
2023/11/05 09:35:25;;;;;;;3.08;1.35;;;19.30;73.30;;;;;;5059929;28;20140;-84
2023/11/05 09:37:51;;;;;;;3.22;1.90;;;19.30;73.20;;;;;;5062832;28;20040;-81
2023/11/05 09:40:16;;;;;;;2.60;1.55;;;19.30;73.10;;;;;;5060018;28;20461;-84
2023/11/05 09:42:51;;;;;;;7.05;1.65;;;19.30;73.30;;;;;;5064699;28;20053;-89
2023/11/05 09:45:17;;;;;;;2.97;1.10;;;19.30;73.40;;;;;;5050215;28;20064;-85
2023/11/05 09:47:43;;;;;;;4.10;1.30;;;19.30;73.50;;;;;;5062765;28;20391;-85
2023/11/05 09:50:09;;;;;;;4.20;1.60;;;19.30;73.30;;;;;;5094318;28;20036;-80
2023/11/05 09:52:39;;;;;;;3.30;1.17;;;19.30;73.80;;;;;;5063726;28;20059;-81
2023/11/05 09:55:05;;;;;;;3.65;1.38;;;19.30;73.70;;;;;;5061563;28;20045;-84
2023/11/05 09:57:31;;;;;;;3.30;1.20;;;19.40;74.00;;;;;;5063192;28;20045;-83
2023/11/05 09:59:56;;;;;;;7.65;1.75;;;19.30;74.10;;;;;;5063344;28;20059;-84
2023/11/05 10:02:22;;;;;;;4.10;1.52;;;19.40;74.80;;;;;;5060762;28;20100;-79
2023/11/05 10:04:47;;;;;;;3.08;1.67;;;19.40;75.00;;;;;;5065048;28;20097;-81
2023/11/05 10:07:13;;;;;;;2.85;1.70;;;19.40;75.30;;;;;;5064291;28;20064;-79
2023/11/05 10:09:39;;;;;;;4.38;1.50;;;19.40;75.60;;;;;;5065367;28;20044;-80
2023/11/05 10:12:05;;;;;;;2.35;1.60;;;19.40;75.60;;;;;;5061551;28;20036;-79
2023/11/05 10:14:31;;;;;;;1.58;1.30;;;19.50;75.90;;;;;;5063423;28;20486;-82
2023/11/05 10:16:58;;;;;;;4.70;1.65;;;19.60;76.00;;;;;;5064496;28;20040;-80
2023/11/05 10:19:23;;;;;;;1.70;1.40;;;19.60;76.00;;;;;;5060974;28;20060;-82
2023/11/05 10:21:49;;;;;;;2.75;1.27;;;19.60;75.90;;;;;;5065106;28;20497;-82
2023/11/05 10:24:14;;;;;;;3.95;1.27;;;19.70;75.80;;;;;;5064582;28;20576;-82
2023/11/05 10:26:40;;;;;;;9.18;1.67;;;19.60;76.80;;;;;;5047972;28;20163;-86
2023/11/05 10:29:07;;;;;;;1.77;1.17;;;19.60;76.10;;;;;;5047827;28;20036;-84
2023/11/05 10:31:33;;;;;;;1.77;1.30;;;19.70;76.00;;;;;;5063838;28;20041;-84
2023/11/05 10:33:59;;;;;;;3.05;1.60;;;19.60;76.20;;;;;;5063205;28;20036;-82
2023/11/05 10:36:27;;;;;;;10.95;1.63;;;19.60;75.30;;;;;;5063096;28;20121;-82
2023/11/05 10:38:53;;;;;;;3.60;1.45;;;19.60;75.50;;;;;;5065004;28;20097;-84
2023/11/05 10:41:19;;;;;;;1.65;1.20;;;19.60;75.60;;;;;;5034419;28;20049;-85
2023/11/05 10:43:53;;;;;;;3.67;1.40;;;19.60;75.60;;;;;;5030395;28;20051;-80
2023/11/05 10:46:19;;;;;;;3.25;1.27;;;19.60;75.40;;;;;;5042504;28;20075;-82
2023/11/05 10:48:45;;;;;;;5.20;1.30;;;19.60;75.40;;;;;;5049780;28;20048;-83
2023/11/05 10:51:11;;;;;;;1.70;1.23;;;19.70;75.10;;;;;;5059378;28;20074;-84
2023/11/05 10:53:37;;;;;;;4.47;1.10;;;19.70;75.30;;;;;;5060062;28;20797;-85
2023/11/05 10:56:28;;;;;;;2.97;1.50;;;19.70;75.10;;;;;;5065433;28;20048;-84
2023/11/05 10:58:55;;;;;;;4.20;1.80;;;19.60;75.50;;;;;;5043233;28;20052;-85
2023/11/05 11:01:21;;;;;;;1.70;1.30;;;19.60;75.70;;;;;;5095183;28;20106;-86
2023/11/05 11:03:47;;;;;;;1.85;1.40;;;19.60;75.50;;;;;;5062234;28;20094;-84
2023/11/05 11:06:13;;;;;;;3.40;1.40;;;19.60;75.70;;;;;;5063443;28;20048;-85
2023/11/05 11:08:38;;;;;;;3.97;1.38;;;19.60;75.80;;;;;;5058366;28;20441;-82
2023/11/05 11:11:11;;;;;;;2.72;1.70;;;19.60;76.20;;;;;;5056211;28;22058;-84
2023/11/05 11:13:39;;;;;;;4.90;1.27;;;19.60;76.30;;;;;;5061582;28;20044;-84
2023/11/05 11:16:05;;;;;;;3.58;1.10;;;19.60;76.30;;;;;;5064263;28;20113;-82
2023/11/05 11:18:31;;;;;;;4.10;1.30;;;19.60;76.40;;;;;;5062612;28;20527;-83
2023/11/05 11:20:57;;;;;;;3.90;1.38;;;19.60;76.30;;;;;;5057519;28;20497;-82
2023/11/05 11:23:24;;;;;;;5.10;1.98;;;19.60;76.40;;;;;;5059803;28;20047;-80
2023/11/05 11:25:59;;;;;;;2.13;1.25;;;19.60;77.20;;;;;;5065516;28;20123;-88
2023/11/05 11:28:25;;;;;;;3.03;1.27;;;19.60;76.60;;;;;;5060870;28;20046;-82
2023/11/05 11:30:51;;;;;;;3.53;1.33;;;19.60;76.40;;;;;;5067008;28;20679;-85
2023/11/05 11:33:20;;;;;;;3.65;1.17;;;19.60;76.60;;;;;;5041679;28;20044;-86
2023/11/05 11:35:46;;;;;;;2.95;1.48;;;19.60;76.50;;;;;;5073804;28;20486;-90
2023/11/05 11:38:12;;;;;;;5.55;1.63;;;19.60;76.20;;;;;;5057928;28;20044;-85
2023/11/05 11:40:37;;;;;;;2.85;1.30;;;19.50;75.90;;;;;;5065256;28;20053;-86
2023/11/05 11:43:04;;;;;;;4.32;1.35;;;19.50;75.90;;;;;;5050373;28;20045;-88
2023/11/05 11:45:29;;;;;;;3.40;1.00;;;19.50;76.00;;;;;;5037941;28;20060;-84
2023/11/05 11:47:55;;;;;;;3.50;1.20;;;19.50;73.50;;;;;;5043018;28;20047;-84
2023/11/05 11:50:20;;;;;;;4.22;1.38;;;19.50;74.90;;;;;;5041080;28;20079;-81
2023/11/05 11:52:50;;;;;;;3.60;1.23;;;19.40;74.90;;;;;;4705369;28;9999765;-83
2023/11/05 11:55:16;;;;;;;3.33;1.30;;;19.50;74.90;;;;;;5046489;28;20110;-82
2023/11/05 11:57:42;;;;;;;3.53;1.75;;;19.50;74.90;;;;;;5063041;28;20498;-81
2023/11/05 12:00:11;;;;;;;4.18;1.30;;;19.50;74.90;;;;;;4680186;28;10000494;-83
2023/11/05 12:02:39;;;;;;;3.17;1.17;;;19.50;74.70;;;;;;5045243;28;20074;-83
2023/11/05 12:05:05;;;;;;;2.90;1.38;;;19.50;74.70;;;;;;5075711;28;20524;-83
2023/11/05 12:07:47;;;;;;;4.75;1.27;;;19.40;74.60;;;;;;5056130;28;20036;-83
2023/11/05 12:10:21;;;;;;;5.68;1.52;;;19.50;74.80;;;;;;5060084;28;20055;-84
2023/11/05 12:12:48;;;;;;;9.18;1.92;;;19.50;74.80;;;;;;5058317;28;20048;-83
2023/11/05 12:15:14;;;;;;;5.05;1.52;;;19.50;74.80;;;;;;5059653;28;20049;-82
2023/11/05 12:17:39;;;;;;;3.25;1.10;;;19.50;74.70;;;;;;5058148;28;20056;-81
2023/11/05 12:20:06;;;;;;;5.78;1.60;;;19.50;74.70;;;;;;5042266;28;20048;-81
2023/11/05 12:22:31;;;;;;;2.63;1.48;;;19.50;75.40;;;;;;5057911;28;20465;-82
2023/11/05 12:25:09;;;;;;;3.15;1.00;;;19.50;74.60;;;;;;5059527;28;20044;-82
2023/11/05 12:27:35;;;;;;;3.92;1.23;;;19.50;74.70;;;;;;5058673;28;20037;-80
2023/11/05 12:30:06;;;;;;;2.05;1.25;;;19.50;74.50;;;;;;5056364;28;20048;-80
2023/11/05 12:32:33;;;;;;;3.92;1.20;;;19.50;74.50;;;;;;5059669;28;20086;-80
2023/11/05 12:34:59;;;;;;;2.17;1.08;;;19.50;75.30;;;;;;5081331;28;20125;-80
2023/11/05 12:37:24;;;;;;;7.22;1.80;;;19.50;74.40;;;;;;5066055;28;20571;-79
2023/11/05 12:39:50;;;;;;;3.65;1.30;;;19.50;74.40;;;;;;5051292;28;20051;-80